Time;durP1;ratioP1;P1;durP2;ratioP2;P2;SDS_P1;SDS_P2;PMS_P1;PMS_P2;Temp;Humidity;BMP_temperature;BMP_pressure;BME280_temperature;BME280_humidity;BME280_pressure;Samples;Min_cycle;Max_cycle;Signal;HPM_P1;HPM_P2
2022/08/26 00:02:12;;;;;;;0.00;0.00;;;21.70;99.90;20.90;97065.00;;;;5042571;28;20252;-73
2022/08/26 00:04:42;;;;;;;0.00;0.00;;;21.50;99.90;20.90;97066.00;;;;5042351;28;20246;-73
2022/08/26 00:07:10;;;;;;;0.00;0.00;;;21.50;99.90;20.80;97070.00;;;;5039156;28;20195;-73
2022/08/26 00:09:38;;;;;;;0.00;0.00;;;21.50;99.90;20.80;97073.00;;;;5041196;28;20195;-73
2022/08/26 00:12:09;;;;;;;0.00;0.00;;;21.50;99.90;20.80;97070.00;;;;5040944;28;20822;-72
2022/08/26 00:14:40;;;;;;;0.00;0.00;;;21.40;99.90;20.80;97033.00;;;;5043429;28;20301;-73
2022/08/26 00:17:10;;;;;;;0.00;0.00;;;21.40;99.90;20.80;97070.00;;;;5041366;28;20206;-73
2022/08/26 00:19:38;;;;;;;0.00;0.00;;;21.40;99.90;20.80;97073.00;;;;5042691;28;20212;-73
2022/08/26 00:22:07;;;;;;;0.00;0.00;;;21.40;99.90;20.90;97074.00;;;;5041304;28;20676;-73
2022/08/26 00:24:35;;;;;;;0.00;0.00;;;21.50;99.90;20.90;97065.00;;;;5042136;28;20210;-73
2022/08/26 00:27:03;;;;;;;0.00;0.00;;;21.50;99.90;20.90;97065.00;;;;5041973;28;20202;-74
2022/08/26 00:29:33;;;;;;;0.00;0.00;;;21.40;99.90;20.70;97062.00;;;;5057202;28;20209;-73
2022/08/26 00:32:05;;;;;;;0.00;0.00;;;21.30;99.90;20.70;97064.00;;;;5040418;28;20230;-73
2022/08/26 00:34:36;;;;;;;0.00;0.00;;;21.20;99.90;20.70;97102.00;;;;5041207;28;20267;-73
2022/08/26 00:37:05;;;;;;;0.00;0.00;;;21.30;99.90;20.60;97089.00;;;;5038579;28;20226;-74
2022/08/26 00:39:39;;;;;;;0.00;0.00;;;21.30;99.90;20.60;97095.00;;;;5041253;28;20249;-73
2022/08/26 00:42:08;;;;;;;0.00;0.00;;;21.30;99.90;20.50;97103.00;;;;5041229;28;20257;-73
2022/08/26 00:44:37;;;;;;;0.00;0.00;;;21.20;99.90;20.50;97104.00;;;;5041621;28;20222;-72
2022/08/26 00:47:21;;;;;;;0.00;0.00;;;21.20;99.90;20.50;97097.00;;;;5041481;28;20202;-74
2022/08/26 00:49:53;;;;;;;0.00;0.00;;;21.10;99.90;20.50;97096.00;;;;5057570;28;20221;-74
2022/08/26 00:52:23;;;;;;;0.00;0.00;;;21.20;99.90;20.50;97095.00;;;;5040466;28;20199;-75
2022/08/26 00:55:03;;;;;;;0.00;0.00;;;21.10;99.90;20.50;97100.00;;;;5041644;28;20218;-74
2022/08/26 00:57:33;;;;;;;0.00;0.00;;;21.10;99.90;20.50;97101.00;;;;5045891;28;20595;-73
2022/08/26 01:00:08;;;;;;;0.00;0.00;;;21.10;99.90;20.50;97092.00;;;;5044505;28;20285;-73
2022/08/26 01:02:37;;;;;;;0.00;0.00;;;21.10;99.90;20.40;97100.00;;;;5045973;28;20206;-72
2022/08/26 01:05:17;;;;;;;0.00;0.00;;;21.00;99.90;20.30;97083.00;;;;5045733;28;20548;-72
2022/08/26 01:07:45;;;;;;;0.00;0.00;;;21.00;99.90;20.30;97065.00;;;;5045237;28;20740;-72
2022/08/26 01:10:22;;;;;;;0.00;0.00;;;20.90;99.90;20.20;97098.00;;;;5041701;28;20217;-73
2022/08/26 01:13:00;;;;;;;0.00;0.00;;;20.80;99.90;20.20;97105.00;;;;5040962;28;20226;-73
2022/08/26 01:15:36;;;;;;;0.00;0.00;;;20.90;99.90;20.20;97096.00;;;;5036706;28;20298;-73
2022/08/26 01:18:05;;;;;;;0.00;0.00;;;20.80;99.90;20.20;97096.00;;;;5056529;28;20202;-73
2022/08/26 01:20:48;;;;;;;0.00;0.00;;;20.90;99.90;20.10;97096.00;;;;5039248;28;20728;-73
2022/08/26 01:23:17;;;;;;;0.00;0.00;;;20.70;99.90;20.10;97089.00;;;;5040976;28;20638;-73
2022/08/26 01:25:54;;;;;;;0.00;0.00;;;20.70;99.90;20.10;97102.00;;;;5040884;28;20662;-73
2022/08/26 01:28:28;;;;;;;0.00;0.00;;;20.80;99.90;20.10;97094.00;;;;5039946;28;20203;-72
2022/08/26 01:30:59;;;;;;;0.00;0.00;;;20.70;99.90;20.00;97100.00;;;;5041035;28;20688;-72
2022/08/26 01:33:34;;;;;;;0.00;0.00;;;20.60;99.90;19.90;97088.00;;;;5040807;28;21170;-72
2022/08/26 01:36:10;;;;;;;0.00;0.00;;;20.60;99.90;19.80;97088.00;;;;5040539;28;20209;-73
2022/08/26 01:38:41;;;;;;;0.00;0.00;;;20.50;99.90;19.80;97102.00;;;;5036484;28;20194;-73
2022/08/26 01:41:13;;;;;;;0.00;0.00;;;20.50;99.90;19.80;97105.00;;;;5039812;28;20230;-74
2022/08/26 01:43:52;;;;;;;0.00;0.00;;;20.50;99.90;19.80;97097.00;;;;5038649;28;20630;-75
2022/08/26 01:46:24;;;;;;;0.00;0.00;;;20.50;99.90;19.80;97105.00;;;;5039761;28;20202;-75
2022/08/26 01:48:58;;;;;;;0.00;0.00;;;20.40;99.90;19.70;97095.00;;;;5041316;28;20198;-76
2022/08/26 01:51:28;;;;;;;0.00;0.00;;;20.30;99.90;19.60;97092.00;;;;5040382;28;20202;-75
2022/08/26 01:53:58;;;;;;;0.00;0.00;;;20.20;99.90;19.50;97097.00;;;;5040576;28;20222;-75
2022/08/26 01:56:26;;;;;;;0.00;0.00;;;20.10;99.90;19.60;97088.00;;;;5040173;28;20273;-73
2022/08/26 01:59:10;;;;;;;0.00;0.00;;;20.20;99.90;19.60;97091.00;;;;5039759;28;20665;-74
2022/08/26 02:01:39;;;;;;;0.00;0.00;;;20.20;99.90;19.60;97092.00;;;;5039723;28;20222;-73
2022/08/26 02:04:18;;;;;;;0.00;0.00;;;20.20;99.90;19.60;97100.00;;;;5040409;28;20257;-74
2022/08/26 02:06:48;;;;;;;0.00;0.00;;;20.20;99.90;19.50;97090.00;;;;5041029;28;20277;-74
2022/08/26 02:09:20;;;;;;;0.00;0.00;;;20.10;99.90;19.50;97100.00;;;;5040701;28;20199;-74
2022/08/26 02:11:48;;;;;;;0.00;0.00;;;20.10;99.90;19.50;97086.00;;;;5039346;28;20219;-74
2022/08/26 02:14:22;;;;;;;0.00;0.00;;;20.10;99.90;19.50;97090.00;;;;5040200;28;20827;-74
2022/08/26 02:16:55;;;;;;;0.00;0.00;;;20.10;99.90;19.40;97090.00;;;;5039846;28;20681;-75
2022/08/26 02:19:29;;;;;;;0.00;0.00;;;20.00;99.90;19.30;97091.00;;;;5039569;28;20289;-74
2022/08/26 02:22:02;;;;;;;0.00;0.00;;;20.00;99.90;19.30;97085.00;;;;5039824;28;20234;-74
2022/08/26 02:24:50;;;;;;;0.00;0.00;;;20.00;99.90;19.30;97082.00;;;;5039944;28;20213;-74
2022/08/26 02:27:27;;;;;;;0.00;0.00;;;20.00;99.90;19.30;97033.00;;;;5038663;28;20202;-74
2022/08/26 02:30:10;;;;;;;0.00;0.00;;;19.90;99.90;19.30;97021.00;;;;5039874;28;20211;-74
2022/08/26 02:32:39;;;;;;;0.00;0.00;;;19.90;99.90;19.30;97038.00;;;;5038917;28;20203;-74
2022/08/26 02:35:09;;;;;;;0.00;0.00;;;19.90;99.90;19.30;97039.00;;;;5039572;28;20209;-73
2022/08/26 02:37:38;;;;;;;0.00;0.00;;;19.90;99.90;19.30;97037.00;;;;5039748;28;20194;-73
2022/08/26 02:40:13;;;;;;;0.00;0.00;;;19.90;99.90;19.40;97038.00;;;;5038523;28;20677;-72
2022/08/26 02:42:42;;;;;;;0.00;0.00;;;20.00;99.90;19.40;97051.00;;;;5040048;28;20596;-72
2022/08/26 02:45:11;;;;;;;0.00;0.00;;;20.00;99.90;19.40;97038.00;;;;5038555;28;20199;-71
2022/08/26 02:47:39;;;;;;;0.00;0.00;;;20.00;99.90;19.50;97040.00;;;;5039614;28;20569;-71
2022/08/26 02:50:08;;;;;;;0.00;0.00;;;20.10;99.90;19.60;97031.00;;;;5039796;28;20207;-72
2022/08/26 02:52:36;;;;;;;0.00;0.00;;;20.20;99.90;19.50;97033.00;;;;5054442;28;20206;-73
2022/08/26 02:55:07;;;;;;;0.00;0.00;;;20.20;99.90;19.30;97027.00;;;;5040231;28;20838;-73
2022/08/26 02:57:36;;;;;;;0.00;0.00;;;20.10;99.90;19.30;97027.00;;;;5043357;28;20197;-73
2022/08/26 03:00:09;;;;;;;0.00;0.00;;;20.00;99.90;19.30;97025.00;;;;5042971;28;20202;-73
2022/08/26 03:02:37;;;;;;;0.00;0.00;;;20.00;99.90;19.30;97015.00;;;;5043415;28;20221;-73
2022/08/26 03:05:07;;;;;;;0.00;0.00;;;20.00;99.90;19.10;97008.00;;;;5058588;28;20210;-73
2022/08/26 03:07:35;;;;;;;0.00;0.00;;;19.80;99.90;19.10;96984.00;;;;5044656;28;20198;-73
2022/08/26 03:10:05;;;;;;;0.00;0.00;;;19.80;99.90;19.10;96997.00;;;;5044283;28;20599;-73
2022/08/26 03:12:37;;;;;;;0.00;0.00;;;19.80;99.90;19.10;96990.00;;;;5043865;28;20198;-73
2022/08/26 03:15:07;;;;;;;0.00;0.00;;;19.80;99.90;19.00;96981.00;;;;5043510;28;20199;-73
2022/08/26 03:17:47;;;;;;;0.00;0.00;;;19.70;99.90;18.90;97041.00;;;;5042751;28;20604;-73
2022/08/26 03:20:18;;;;;;;0.00;0.00;;;19.50;99.90;18.80;97050.00;;;;5044624;28;20206;-73
2022/08/26 03:22:46;;;;;;;0.00;0.00;;;19.40;99.90;18.70;97046.00;;;;5040431;28;20233;-73
2022/08/26 03:25:17;;;;;;;0.00;0.00;;;19.30;99.90;18.70;97042.00;;;;5040489;28;20199;-72
2022/08/26 03:27:46;;;;;;;0.00;0.00;;;19.40;99.90;18.70;97045.00;;;;5042299;28;20653;-73
2022/08/26 03:33:02;;;;;;;0.00;0.00;;;19.40;99.90;18.80;97048.00;;;;5042404;28;20221;-73
2022/08/26 03:35:32;;;;;;;0.00;0.00;;;19.40;99.90;18.60;97044.00;;;;5043348;28;20219;-74
2022/08/26 03:38:02;;;;;;;0.00;0.00;;;19.50;99.90;18.70;97048.00;;;;5043796;28;20209;-74
2022/08/26 03:40:32;;;;;;;0.00;0.00;;;19.40;99.90;18.70;97042.00;;;;5043575;28;20206;-74
2022/08/26 03:43:03;;;;;;;0.00;0.00;;;19.40;99.90;18.60;97038.00;;;;5043864;28;20227;-74
2022/08/26 03:45:33;;;;;;;0.00;0.00;;;19.20;99.90;18.50;97039.00;;;;5043521;28;20199;-74
2022/08/26 03:48:02;;;;;;;0.00;0.00;;;19.10;99.90;18.40;97050.00;;;;5040307;28;20226;-74
2022/08/26 03:50:31;;;;;;;0.00;0.00;;;19.00;99.90;18.40;97020.00;;;;5043131;28;20206;-74
2022/08/26 03:53:04;;;;;;;0.00;0.00;;;19.00;99.90;18.40;97038.00;;;;5041951;28;20218;-74
2022/08/26 03:55:40;;;;;;;0.00;0.00;;;19.00;99.90;18.40;97041.00;;;;5042646;28;20198;-74
2022/08/26 03:58:09;;;;;;;0.00;0.00;;;19.00;99.90;18.40;97044.00;;;;5042663;28;20199;-75
2022/08/26 04:00:38;;;;;;;0.00;0.00;;;19.10;99.90;18.50;97014.00;;;;5042090;28;20250;-75
2022/08/26 04:03:06;;;;;;;0.00;0.00;;;19.10;99.90;18.50;97044.00;;;;5042316;28;20226;-75
2022/08/26 04:05:37;;;;;;;0.00;0.00;;;19.20;99.90;18.50;97043.00;;;;5041426;28;20695;-75
2022/08/26 04:08:06;;;;;;;0.00;0.00;;;19.20;99.90;18.50;97006.00;;;;5041817;28;20252;-75
2022/08/26 04:10:37;;;;;;;0.00;0.00;;;19.20;99.90;18.50;97040.00;;;;5043224;28;20569;-75
2022/08/26 04:13:05;;;;;;;0.00;0.00;;;19.20;99.90;18.60;97040.00;;;;5039203;28;20992;-75
2022/08/26 04:15:35;;;;;;;0.00;0.00;;;19.20;99.90;18.40;97042.00;;;;5043033;28;20215;-75
2022/08/26 04:18:03;;;;;;;0.00;0.00;;;19.20;99.90;18.60;97039.00;;;;5042675;28;20207;-75
2022/08/26 04:20:31;;;;;;;0.00;0.00;;;19.20;99.90;18.60;97043.00;;;;5043454;28;20210;-75
2022/08/26 04:22:59;;;;;;;0.00;0.00;;;19.20;99.90;18.50;97036.00;;;;5037875;28;20238;-75
2022/08/26 04:25:27;;;;;;;0.00;0.00;;;19.20;99.90;18.50;97046.00;;;;5041501;28;20191;-75
2022/08/26 04:27:55;;;;;;;0.00;0.00;;;19.20;99.90;18.50;97045.00;;;;5041299;28;20203;-75
2022/08/26 04:30:24;;;;;;;0.00;0.00;;;19.20;99.90;18.40;97038.00;;;;5042298;28;20246;-75
2022/08/26 04:32:53;;;;;;;0.00;0.00;;;19.10;99.90;18.40;97036.00;;;;5042357;28;20713;-75
2022/08/26 04:35:21;;;;;;;0.00;0.00;;;19.10;99.90;18.50;97037.00;;;;5041777;28;20203;-71
2022/08/26 04:37:54;;;;;;;0.00;0.00;;;19.20;99.90;18.50;97041.00;;;;5040510;28;20207;-71
2022/08/26 04:40:22;;;;;;;0.00;0.00;;;19.20;99.90;18.50;97018.00;;;;5042501;28;20253;-71
2022/08/26 04:42:52;;;;;;;0.00;0.00;;;19.10;99.90;18.50;97034.00;;;;5042598;28;20237;-71
2022/08/26 04:45:21;;;;;;;0.00;0.00;;;19.10;99.90;18.50;97040.00;;;;5041206;28;20199;-71
2022/08/26 04:47:55;;;;;;;0.00;0.00;;;19.10;99.90;18.50;97042.00;;;;5041584;28;20248;-71
2022/08/26 04:50:25;;;;;;;0.00;0.00;;;19.20;99.90;18.40;97044.00;;;;5042138;28;20696;-71
2022/08/26 04:52:54;;;;;;;0.00;0.00;;;19.10;99.90;18.40;97036.00;;;;5036670;28;20254;-71
2022/08/26 04:55:23;;;;;;;0.00;0.00;;;19.10;99.90;18.30;97040.00;;;;5040777;28;20205;-71
2022/08/26 04:58:08;;;;;;;0.00;0.00;;;19.00;99.90;18.40;97030.00;;;;5038182;28;20202;-71
2022/08/26 05:00:38;;;;;;;0.00;0.00;;;19.10;99.90;18.50;97038.00;;;;5041152;28;20195;-70
2022/08/26 05:03:07;;;;;;;0.00;0.00;;;19.10;99.90;18.50;97041.00;;;;5039295;28;20313;-70
2022/08/26 05:05:40;;;;;;;0.00;0.00;;;19.10;99.90;18.60;97037.00;;;;5038633;28;22657;-71
2022/08/26 05:08:09;;;;;;;0.00;0.00;;;19.20;99.90;18.60;97047.00;;;;5040466;28;20550;-70
2022/08/26 05:10:43;;;;;;;0.00;0.00;;;19.20;99.90;18.60;97035.00;;;;5040364;28;20274;-70
2022/08/26 05:13:11;;;;;;;0.00;0.00;;;19.30;99.90;18.60;97052.00;;;;5040938;28;20225;-70
2022/08/26 05:15:44;;;;;;;0.00;0.00;;;19.30;99.90;18.60;97043.00;;;;5040997;28;20241;-70
2022/08/26 05:18:16;;;;;;;0.00;0.00;;;19.30;99.90;18.70;97031.00;;;;5041130;28;20252;-70
2022/08/26 05:20:50;;;;;;;0.00;0.00;;;19.40;99.90;18.70;97048.00;;;;5041632;28;20214;-70
2022/08/26 05:23:21;;;;;;;0.00;0.00;;;19.40;99.90;18.70;97040.00;;;;5040149;28;20227;-71
2022/08/26 05:25:52;;;;;;;0.00;0.00;;;19.40;99.90;18.80;97014.00;;;;5041260;28;20198;-69
2022/08/26 05:28:29;;;;;;;0.00;0.00;;;19.50;99.90;18.80;97023.00;;;;5040113;28;20273;-70
2022/08/26 05:30:57;;;;;;;0.00;0.00;;;19.50;99.90;18.90;97022.00;;;;5040442;28;20212;-69
2022/08/26 05:33:28;;;;;;;0.00;0.00;;;19.50;99.90;18.90;97031.00;;;;5040819;28;20227;-70
2022/08/26 05:35:56;;;;;;;0.00;0.00;;;19.60;99.90;18.80;97031.00;;;;5041104;28;20206;-70
2022/08/26 05:38:24;;;;;;;0.00;0.00;;;19.50;99.90;226.50;167882.00;;;;5040520;28;20203;-70
2022/08/26 05:40:57;;;;;;;0.00;0.00;;;19.50;99.90;226.50;231333.00;;;;5037430;28;20229;-70
2022/08/26 05:43:26;;;;;;;0.00;0.00;;;19.50;99.90;19.00;97034.00;;;;5039206;28;20720;-70
2022/08/26 05:45:54;;;;;;;0.00;0.00;;;19.50;99.90;226.50;166987.00;;;;5040522;28;20226;-70
2022/08/26 05:48:23;;;;;;;0.00;0.00;;;19.60;99.90;19.00;97050.00;;;;5039352;28;20568;-72
2022/08/26 05:50:53;;;;;;;0.00;0.00;;;19.60;99.90;19.10;97042.00;;;;5040678;28;20202;-71
2022/08/26 05:53:22;;;;;;;0.00;0.00;;;19.70;99.90;19.10;97034.00;;;;5040403;28;20226;-70
2022/08/26 05:55:54;;;;;;;0.00;0.00;;;19.70;99.90;226.50;167239.00;;;;5039481;28;20229;-70
2022/08/26 05:58:24;;;;;;;0.00;0.00;;;19.80;99.90;19.20;97041.00;;;;5039461;28;20198;-70
2022/08/26 06:01:00;;;;;;;0.00;0.00;;;19.80;99.90;19.10;97043.00;;;;5038158;28;20202;-70
2022/08/26 06:03:32;;;;;;;0.00;0.00;;;19.70;99.90;19.10;97048.00;;;;5039087;28;20227;-71
2022/08/26 06:06:06;;;;;;;0.00;0.00;;;19.70;99.90;19.10;97052.00;;;;5040490;28;20206;-72
2022/08/26 06:08:35;;;;;;;0.00;0.00;;;19.70;99.90;19.20;97057.00;;;;5040153;28;20198;-69
2022/08/26 06:11:07;;;;;;;0.00;0.00;;;19.80;99.90;19.30;97050.00;;;;5039569;28;20202;-71
2022/08/26 06:13:45;;;;;;;0.00;0.00;;;19.80;99.90;19.40;97034.00;;;;5039450;28;20223;-70
2022/08/26 06:16:18;;;;;;;0.00;0.00;;;19.90;99.90;19.20;97060.00;;;;5039927;28;20194;-70
2022/08/26 06:18:49;;;;;;;0.00;0.00;;;19.90;99.90;19.50;97064.00;;;;5038684;28;20217;-70
2022/08/26 06:21:23;;;;;;;0.00;0.00;;;20.00;99.90;19.60;97067.00;;;;5036407;28;20211;-72
2022/08/26 06:26:49;;;;;;;0.00;0.00;;;20.20;99.90;19.80;97063.00;;;;5036605;28;20195;-70
2022/08/26 06:29:19;;;;;;;0.00;0.00;;;20.30;99.90;19.90;97056.00;;;;5037823;28;20202;-69
2022/08/26 06:31:52;;;;;;;0.00;0.00;;;20.40;99.90;20.00;97060.00;;;;5020715;28;20238;-69
2022/08/26 06:34:21;;;;;;;0.00;0.00;;;20.50;99.90;20.10;97056.00;;;;5036487;28;20214;-70
2022/08/26 06:36:50;;;;;;;0.00;0.00;;;20.60;99.90;20.10;97064.00;;;;5039391;28;20195;-69
2022/08/26 06:39:20;;;;;;;0.00;0.00;;;20.60;99.90;20.20;97055.00;;;;5038987;28;20195;-69
2022/08/26 06:41:48;;;;;;;0.00;0.00;;;20.70;99.90;20.30;97046.00;;;;5038416;28;20256;-69
2022/08/26 06:44:18;;;;;;;0.00;0.00;;;20.80;99.90;20.30;97043.00;;;;5037327;28;20775;-69
2022/08/26 06:46:46;;;;;;;0.00;0.00;;;20.80;99.90;20.30;97047.00;;;;5040456;28;20198;-69
2022/08/26 06:49:18;;;;;;;0.00;0.00;;;20.80;99.90;20.40;97049.00;;;;5035534;28;20217;-69
2022/08/26 06:51:57;;;;;;;0.00;0.00;;;20.90;99.90;20.50;97053.00;;;;5035981;28;20202;-69
2022/08/26 06:54:25;;;;;;;0.00;0.00;;;21.00;99.90;20.60;97052.00;;;;5033625;28;20231;-69
2022/08/26 06:56:55;;;;;;;0.00;0.00;;;21.10;99.90;20.70;97048.00;;;;5035048;28;20265;-69
2022/08/26 06:59:24;;;;;;;0.00;0.00;;;21.10;99.90;20.80;97062.00;;;;5034294;28;20202;-70
2022/08/26 07:01:53;;;;;;;0.00;0.00;;;21.20;99.90;20.90;97060.00;;;;5034439;28;20252;-71
2022/08/26 07:04:23;;;;;;;0.00;0.00;;;21.40;99.90;21.00;97058.00;;;;5033714;28;20235;-70
2022/08/26 07:06:52;;;;;;;0.00;0.00;;;21.50;99.90;21.10;97072.00;;;;5031964;28;20847;-70
2022/08/26 07:09:25;;;;;;;0.00;0.00;;;21.50;99.90;21.20;97059.00;;;;5034786;28;20213;-69
2022/08/26 07:11:55;;;;;;;0.00;0.00;;;21.60;99.90;21.20;97060.00;;;;5036005;28;20666;-70
2022/08/26 07:14:24;;;;;;;0.00;0.00;;;21.60;99.90;21.20;97065.00;;;;5034311;28;20227;-71
2022/08/26 07:16:53;;;;;;;0.00;0.00;;;21.60;99.90;21.20;97056.00;;;;5035960;28;20199;-70
2022/08/26 07:19:23;;;;;;;0.00;0.00;;;21.70;99.90;21.30;97040.00;;;;5033033;28;20234;-71
2022/08/26 07:21:58;;;;;;;0.00;0.00;;;21.80;99.90;21.40;97023.00;;;;5036101;28;20207;-70
2022/08/26 07:24:27;;;;;;;0.00;0.00;;;21.90;99.90;21.60;97057.00;;;;5035547;28;20227;-70
2022/08/26 07:27:00;;;;;;;0.00;0.00;;;22.00;99.90;21.80;97065.00;;;;5036519;28;20288;-70
2022/08/26 07:29:30;;;;;;;0.00;0.00;;;22.20;99.90;21.90;97071.00;;;;5036749;28;20213;-70
2022/08/26 07:31:59;;;;;;;0.00;0.00;;;22.30;99.90;22.00;97059.00;;;;5035790;28;20720;-71
2022/08/26 07:34:27;;;;;;;0.00;0.00;;;22.40;99.90;22.20;97063.00;;;;5034996;28;20280;-70
2022/08/26 07:36:56;;;;;;;0.00;0.00;;;22.60;99.90;22.20;97056.00;;;;5035331;28;20203;-70
2022/08/26 07:39:27;;;;;;;0.00;0.00;;;22.70;99.90;22.40;97049.00;;;;5033921;28;20286;-70
2022/08/26 07:41:59;;;;;;;0.00;0.00;;;22.80;99.90;22.40;97063.00;;;;5037120;28;20205;-70
2022/08/26 07:44:28;;;;;;;0.00;0.00;;;22.90;99.90;22.50;97058.00;;;;5038453;28;20218;-70
2022/08/26 07:46:56;;;;;;;0.00;0.00;;;22.90;99.90;22.60;97058.00;;;;5037037;28;20212;-71
2022/08/26 07:49:25;;;;;;;0.00;0.00;;;23.00;99.90;22.80;97059.00;;;;5037750;28;20207;-71
2022/08/26 07:51:55;;;;;;;0.00;0.00;;;23.20;99.90;22.80;97074.00;;;;5041865;28;20203;-70
2022/08/26 07:54:24;;;;;;;0.00;0.00;;;23.20;99.90;22.90;97056.00;;;;5035169;28;20330;-70
2022/08/26 07:56:55;;;;;;;0.00;0.00;;;23.30;99.90;23.00;97056.00;;;;5038234;28;20210;-74
2022/08/26 07:59:23;;;;;;;0.00;0.00;;;23.40;99.90;23.10;97056.00;;;;5038917;28;20206;-73
2022/08/26 08:01:52;;;;;;;0.00;0.00;;;23.50;99.90;23.30;97054.00;;;;5039624;28;20190;-74
2022/08/26 08:04:20;;;;;;;0.00;0.00;;;23.70;99.90;23.40;97053.00;;;;5038131;28;20314;-72
2022/08/26 08:06:54;;;;;;;0.00;0.00;;;23.80;99.90;23.50;97059.00;;;;5039986;28;20331;-73
2022/08/26 08:09:23;;;;;;;0.00;0.00;;;23.90;99.90;23.60;97064.00;;;;5037344;28;20236;-73
2022/08/26 08:11:52;;;;;;;0.00;0.00;;;24.00;99.90;23.60;97048.00;;;;5040885;28;20551;-72
2022/08/26 08:14:22;;;;;;;0.00;0.00;;;24.00;99.90;23.80;97051.00;;;;5039411;28;20598;-74
2022/08/26 08:16:50;;;;;;;0.00;0.00;;;24.20;99.90;24.00;97018.00;;;;5039770;28;20211;-72
2022/08/26 08:19:22;;;;;;;0.00;0.00;;;24.30;99.90;24.10;97051.00;;;;5038870;28;20198;-73
2022/08/26 08:21:56;;;;;;;0.00;0.00;;;24.40;99.90;24.30;97051.00;;;;5039783;28;20287;-74
2022/08/26 08:24:26;;;;;;;0.00;0.00;;;24.60;99.90;24.40;97051.00;;;;5039354;28;20277;-75
2022/08/26 08:26:54;;;;;;;0.00;0.00;;;24.80;99.90;24.30;97043.00;;;;5037154;28;20291;-73
2022/08/26 08:29:24;;;;;;;0.00;0.00;;;24.80;99.90;24.50;97044.00;;;;5038856;28;20230;-73
2022/08/26 08:31:52;;;;;;;0.00;0.00;;;24.90;99.90;24.60;97035.00;;;;5041193;28;20281;-73
2022/08/26 08:34:27;;;;;;;0.00;0.00;;;24.90;99.90;24.70;97042.00;;;;5041101;28;20219;-73
2022/08/26 08:36:57;;;;;;;0.00;0.00;;;25.00;99.90;24.70;97028.00;;;;5041789;28;20195;-74
2022/08/26 08:39:26;;;;;;;0.00;0.00;;;25.10;99.90;24.80;97041.00;;;;5036219;28;20302;-75
2022/08/26 08:42:36;;;;;;;0.00;0.00;;;25.20;99.90;24.80;97034.00;;;;5041092;28;20293;-74
2022/08/26 08:45:12;;;;;;;0.00;0.00;;;25.20;99.90;24.90;97028.00;;;;5040180;28;20234;-75
2022/08/26 08:47:46;;;;;;;0.00;0.00;;;25.20;99.90;24.90;97021.00;;;;5041426;28;20202;-75
2022/08/26 08:50:25;;;;;;;0.00;0.00;;;25.30;99.90;25.10;97022.00;;;;5046392;28;20203;-72
2022/08/26 08:53:07;;;;;;;0.00;0.00;;;25.40;99.90;25.20;96991.00;;;;5045658;28;20238;-72
2022/08/26 08:55:54;;;;;;;0.00;0.00;;;25.50;99.90;25.30;97016.00;;;;5045611;28;20194;-72
2022/08/26 08:58:34;;;;;;;0.00;0.00;;;25.60;99.90;25.40;97012.00;;;;5041745;28;20198;-73
2022/08/26 09:01:11;;;;;;;0.00;0.00;;;25.70;99.90;25.50;97014.00;;;;5041206;28;20238;-73
2022/08/26 09:03:50;;;;;;;0.00;0.00;;;25.80;99.90;25.50;97005.00;;;;5039727;28;20222;-73
2022/08/26 09:06:19;;;;;;;0.00;0.00;;;25.80;99.90;25.70;97019.00;;;;5038023;28;20223;-73
2022/08/26 09:08:50;;;;;;;0.00;0.00;;;26.00;99.90;25.90;97004.00;;;;5036947;28;20190;-73
2022/08/26 09:11:20;;;;;;;0.00;0.00;;;26.20;99.90;25.90;96991.00;;;;5039553;28;20215;-73
2022/08/26 09:13:54;;;;;;;0.00;0.00;;;26.30;99.90;26.00;96998.00;;;;5039227;28;20623;-73
2022/08/26 09:16:37;;;;;;;0.00;0.00;;;26.40;99.90;26.20;96982.00;;;;5041414;28;20213;-75
2022/08/26 09:19:21;;;;;;;0.00;0.00;;;26.60;99.90;26.30;96989.00;;;;5043122;28;20734;-75
2022/08/26 09:21:56;;;;;;;0.00;0.00;;;26.80;99.90;26.60;96991.00;;;;5041947;28;20569;-72
2022/08/26 09:24:24;;;;;;;0.00;0.00;;;26.90;99.90;26.70;96992.00;;;;5041732;28;20236;-73
2022/08/26 09:26:57;;;;;;;0.00;0.00;;;27.00;99.90;26.60;96993.00;;;;5040188;28;20202;-73
2022/08/26 09:29:29;;;;;;;0.00;0.00;;;27.00;99.90;26.60;96989.00;;;;5040302;28;20229;-73
2022/08/26 09:35:00;;;;;;;0.00;0.00;;;27.00;99.90;26.50;97006.00;;;;5099070;27;21173;-75
2022/08/26 09:37:43;;;;;;;0.00;0.00;;;27.00;99.90;26.50;97006.00;;;;5074297;28;20205;-74
2022/08/26 09:40:31;;;;;;;0.00;0.00;;;26.90;99.90;26.50;97003.00;;;;5071849;28;20200;-74
2022/08/26 09:43:10;;;;;;;0.00;0.00;;;26.90;99.90;26.40;96996.00;;;;5071754;28;20243;-73
2022/08/26 09:45:40;;;;;;;0.00;0.00;;;26.80;99.90;26.40;97012.00;;;;5074289;28;20276;-73
2022/08/26 09:48:30;;;;;;;0.00;0.00;;;26.80;99.90;26.40;96999.00;;;;5071823;28;20224;-74
2022/08/26 09:51:06;;;;;;;0.00;0.00;;;26.80;99.90;26.30;97007.00;;;;5076386;28;20688;-73
2022/08/26 09:53:50;;;;;;;0.00;0.00;;;26.80;99.90;26.30;97011.00;;;;5071822;28;20225;-73
2022/08/26 09:56:26;;;;;;;0.00;0.00;;;26.70;99.90;26.20;97013.00;;;;5075237;28;20201;-73
2022/08/26 09:58:57;;;;;;;0.00;0.00;;;26.60;99.90;26.10;97001.00;;;;5076245;28;20633;-73
2022/08/26 10:01:32;;;;;;;0.00;0.00;;;26.60;99.90;26.20;96984.00;;;;5075992;28;20288;-73
2022/08/26 10:04:09;;;;;;;0.00;0.00;;;26.60;99.90;26.20;96964.00;;;;5074046;28;20290;-73
2022/08/26 10:06:54;;;;;;;0.00;0.00;;;26.60;99.90;26.20;96983.00;;;;5076515;28;20652;-73
2022/08/26 10:09:24;;;;;;;0.00;0.00;;;26.60;99.90;26.20;96980.00;;;;5076428;28;20202;-73
2022/08/26 10:11:57;;;;;;;0.00;0.00;;;26.60;99.90;26.20;96985.00;;;;5076646;28;20312;-73
2022/08/26 10:14:32;;;;;;;0.00;0.00;;;26.60;99.90;26.30;96972.00;;;;5074964;28;20233;-73
2022/08/26 10:17:08;;;;;;;0.00;0.00;;;26.60;99.90;26.30;96976.00;;;;5075315;28;20379;-73
2022/08/26 10:19:43;;;;;;;0.00;0.00;;;26.60;99.90;26.30;96966.00;;;;5075739;28;20679;-75
2022/08/26 10:22:36;;;;;;;0.00;0.00;;;26.70;99.90;26.30;96962.00;;;;5072956;28;20209;-74
2022/08/26 10:25:12;;;;;;;0.00;0.00;;;26.70;99.90;26.50;96854.00;;;;5071361;28;20216;-74
2022/08/26 10:27:48;;;;;;;0.00;0.00;;;26.80;99.90;26.60;96848.00;;;;5071865;23;20254;-72
2022/08/26 10:30:29;;;;;;;0.00;0.00;;;26.80;99.90;26.70;96820.00;;;;5017822;28;20836;-72
2022/08/26 10:33:04;;;;;;;0.00;0.00;;;26.90;99.90;26.90;96822.00;;;;5016779;28;20207;-72
2022/08/26 10:35:36;;;;;;;0.00;0.00;;;27.10;99.90;27.10;96813.00;;;;5018382;28;20201;-72
2022/08/26 10:38:18;;;;;;;0.00;0.00;;;27.30;99.90;27.40;96874.00;;;;5018027;28;20246;-73
2022/08/26 10:40:58;;;;;;;0.00;0.00;;;27.50;99.90;27.70;96788.00;;;;5016431;28;20207;-74
2022/08/26 10:43:30;;;;;;;0.00;0.00;;;27.80;99.90;28.00;96800.00;;;;5017994;28;20582;-73
2022/08/26 10:46:05;;;;;;;0.00;0.00;;;28.00;99.90;28.00;96783.00;;;;5003596;28;20199;-73
2022/08/26 10:48:46;;;;;;;0.00;0.00;;;28.10;99.90;28.20;96835.00;;;;5000344;28;20632;-73
2022/08/26 10:51:26;;;;;;;0.00;0.00;;;28.30;99.90;28.50;96837.00;;;;5002874;28;20196;-73
2022/08/26 10:54:04;;;;;;;0.00;0.00;;;28.50;99.90;28.80;96770.00;;;;5001131;28;20215;-73
2022/08/26 10:56:45;;;;;;;0.00;0.00;;;28.80;99.90;28.50;96868.00;;;;5000872;28;20308;-73
2022/08/26 10:59:28;;;;;;;0.00;0.00;;;28.70;99.90;28.40;96751.00;;;;5003744;28;20220;-74
2022/08/26 11:02:11;;;;;;;0.00;0.00;;;28.70;99.90;28.60;96735.00;;;;5001171;28;20201;-72
2022/08/26 11:04:53;;;;;;;0.00;0.00;;;28.70;99.90;28.70;96763.00;;;;5003180;28;20227;-73
2022/08/26 11:07:40;;;;;;;0.00;0.00;;;28.80;99.90;29.00;96759.00;;;;5001678;28;20228;-73
2022/08/26 11:10:53;;;;;;;0.00;0.00;;;29.00;99.90;29.30;96774.00;;;;5002999;28;20643;-74
2022/08/26 11:14:01;;;;;;;0.00;0.00;;;29.20;99.90;29.60;96784.00;;;;5002329;28;20207;-74
2022/08/26 11:16:40;;;;;;;0.00;0.00;;;29.50;99.90;29.60;96791.00;;;;5003087;28;20671;-73
2022/08/26 11:19:33;;;;;;;0.00;0.00;;;29.60;99.90;29.80;96781.00;;;;5001766;28;20228;-74
2022/08/26 11:22:28;;;;;;;0.00;0.00;;;29.70;99.90;29.70;96774.00;;;;5002627;28;20238;-74
2022/08/26 11:25:11;;;;;;;0.00;0.00;;;29.70;99.90;29.40;96791.00;;;;5001311;28;20203;-74
2022/08/26 11:28:04;;;;;;;0.00;0.00;;;29.50;99.90;29.50;96782.00;;;;4999008;28;20243;-73
2022/08/26 11:30:49;;;;;;;0.00;0.00;;;29.60;99.90;29.90;96777.00;;;;5000630;28;20207;-74